createdAt,value
2023-02-11T00:02:17.695Z,25.7
2023-02-11T00:07:18.408Z,26.7
2023-02-11T00:12:18.799Z,26
2023-02-11T00:17:19.259Z,26.9
2023-02-11T00:22:19.795Z,26.4
2023-02-11T00:27:20.180Z,26.7
2023-02-11T00:32:20.749Z,27.7
2023-02-11T00:37:21.156Z,27.8
2023-02-11T00:42:21.512Z,27.2
2023-02-11T00:47:21.924Z,28.2
2023-02-11T00:52:22.522Z,29.2
2023-02-11T00:57:22.937Z,26.8
2023-02-11T01:02:23.335Z,27.3
2023-02-11T01:07:23.867Z,28.6
2023-02-11T01:12:24.367Z,26.5
2023-02-11T01:17:24.777Z,27.1
2023-02-11T01:22:25.180Z,25.9
2023-02-11T01:27:25.563Z,27.1
2023-02-11T01:32:26.197Z,27
2023-02-11T01:37:26.867Z,26.8
2023-02-11T01:42:27.379Z,27.9
2023-02-11T01:47:27.809Z,27.3
2023-02-11T01:52:28.407Z,26.4
2023-02-11T01:57:28.809Z,26.1
2023-02-11T02:02:29.266Z,28.2
2023-02-11T02:07:29.814Z,28.2
2023-02-11T02:12:30.352Z,27.6
2023-02-11T02:17:30.790Z,27.9
2023-02-11T02:22:31.337Z,28.2
2023-02-11T02:27:31.742Z,29.5
2023-02-11T02:32:32.203Z,27.7
2023-02-11T02:37:32.842Z,27.9
2023-02-11T02:42:33.242Z,27.7
2023-02-11T02:47:33.732Z,27.9
2023-02-11T02:52:34.270Z,27
2023-02-11T02:57:34.799Z,27.8
2023-02-11T03:02:35.177Z,28.7
2023-02-11T03:07:36.001Z,27.8
2023-02-11T03:12:36.343Z,27.2
2023-02-11T03:17:36.848Z,30
2023-02-11T03:22:37.347Z,28.2
2023-02-11T03:27:37.742Z,28.4
2023-02-11T03:32:38.378Z,28.2
2023-02-11T03:37:39.011Z,27.6
2023-02-11T03:42:39.530Z,28.5
2023-02-11T03:47:40.179Z,28.9
2023-02-11T03:52:40.674Z,28.4
2023-02-11T03:57:41.018Z,27.5
2023-02-11T04:02:41.508Z,27.4
2023-02-11T04:07:42.102Z,26.9
2023-02-11T04:12:42.518Z,26.5
2023-02-11T04:17:42.931Z,26.2
2023-02-11T04:22:43.608Z,26.2
2023-02-11T04:27:43.999Z,25.7
2023-02-11T04:37:45.048Z,26.8
2023-02-11T04:42:45.459Z,27.2
2023-02-11T04:47:45.871Z,27
2023-02-11T04:52:46.594Z,26.1
2023-02-11T04:57:47.048Z,27.1
2023-02-11T05:02:47.477Z,26.7
2023-02-11T05:07:48.109Z,27.8
2023-02-11T05:12:48.517Z,27.2
2023-02-11T05:17:48.927Z,26.8
2023-02-11T05:22:50.088Z,29.4
2023-02-11T05:27:50.454Z,29.2
2023-02-11T05:32:50.891Z,30.2
2023-02-11T05:37:51.327Z,30
2023-02-11T05:42:51.713Z,30.3
2023-02-11T05:47:52.169Z,31.4
2023-02-11T05:52:52.869Z,30.8
2023-02-11T05:57:53.429Z,29.4
2023-02-11T06:02:54.062Z,28.9
2023-02-11T06:07:54.563Z,28.8
2023-02-11T06:12:54.961Z,28.2
2023-02-11T06:17:55.419Z,28.5
2023-02-11T06:22:55.968Z,29.8
2023-02-11T06:27:56.632Z,31.1
2023-02-11T06:32:57.257Z,46.5
2023-02-11T06:38:00.781Z,37.1
2023-02-11T06:43:02.177Z,33.9
2023-02-11T06:48:02.727Z,31.5
2023-02-11T06:53:13.445Z,31.1
2023-02-11T06:58:06.589Z,31.7
2023-02-11T07:03:07.153Z,31.4
2023-02-11T07:08:07.801Z,34.7
2023-02-11T07:13:08.393Z,33.3
2023-02-11T07:18:08.937Z,30.6
2023-02-11T07:23:09.390Z,33.1
2023-02-11T07:28:09.820Z,34.2
2023-02-11T07:33:10.320Z,30.6
2023-02-11T07:38:10.842Z,28.8
2023-02-11T07:43:11.272Z,28.1
2023-02-11T07:48:11.808Z,27.3
2023-02-11T07:53:12.278Z,27.8
2023-02-11T07:58:12.861Z,27.3
2023-02-11T08:03:13.229Z,27.7
2023-02-11T08:08:16.358Z,27.1
2023-02-11T08:13:16.867Z,26.8
2023-02-11T08:18:17.410Z,26
2023-02-11T08:23:18.014Z,25.2
2023-02-11T08:28:18.732Z,26
2023-02-11T08:33:19.312Z,26.8
2023-02-11T08:38:19.710Z,26.2
2023-02-11T08:43:20.213Z,25.8
2023-02-11T08:48:20.826Z,25.7
2023-02-11T08:53:21.296Z,27.1
2023-02-11T08:58:21.755Z,28.5
2023-02-11T09:03:22.254Z,27.4
2023-02-11T09:08:22.830Z,26.7
2023-02-11T09:13:23.304Z,26.7
2023-02-11T09:18:24.411Z,27.3
2023-02-11T09:23:24.911Z,25.7
2023-02-11T09:28:25.464Z,25.8
2023-02-11T09:33:26.101Z,25.8
2023-02-11T09:38:26.820Z,25.8
2023-02-11T09:43:27.367Z,26
2023-02-11T09:48:27.879Z,25.4
2023-02-11T09:53:28.657Z,23.5
2023-02-11T09:58:29.037Z,26.4
2023-02-11T10:03:29.707Z,23.4
2023-02-11T10:08:30.129Z,26
2023-02-11T10:13:30.544Z,24.5
2023-02-11T10:18:30.991Z,25.1
2023-02-11T10:23:31.746Z,25.6
2023-02-11T10:28:32.632Z,24.2
2023-02-11T10:33:33.318Z,26
2023-02-11T10:38:33.829Z,24.5
2023-02-11T10:43:34.320Z,25.7
2023-02-11T10:48:34.891Z,25.7
2023-02-11T10:53:35.317Z,25.4
2023-02-11T10:58:35.695Z,24.2
2023-02-11T11:03:36.248Z,25
2023-02-11T11:08:36.862Z,24.7
2023-02-11T11:13:37.253Z,23.8
2023-02-11T11:18:37.771Z,25.1
2023-02-11T11:23:38.334Z,24.5
2023-02-11T11:28:38.756Z,24
2023-02-11T11:33:39.492Z,22.4
2023-02-11T11:38:40.183Z,20.3
2023-02-11T11:43:40.681Z,20
2023-02-11T11:48:41.327Z,20.1
2023-02-11T11:53:41.811Z,19.4
2023-02-11T11:58:42.193Z,19.7
2023-02-11T12:03:42.562Z,19.7
2023-02-11T12:08:42.942Z,19.9
2023-02-11T12:13:43.348Z,17.8
2023-02-11T12:18:47.661Z,19.4
2023-02-11T12:23:51.268Z,17.1
2023-02-11T12:28:51.655Z,17.2
2023-02-11T12:33:52.591Z,17.2
2023-02-11T12:38:53.309Z,19
2023-02-11T12:43:53.726Z,16.3
2023-02-11T12:48:54.380Z,16.8
2023-02-11T12:53:54.792Z,16.8
2023-02-11T12:58:55.578Z,18.1
2023-02-11T13:03:55.993Z,16.9
2023-02-11T13:08:56.540Z,17.9
2023-02-11T13:13:57.112Z,17.9
2023-02-11T13:18:57.509Z,18.5
2023-02-11T13:23:58.029Z,18.1
2023-02-11T13:28:58.487Z,18.2
2023-02-11T13:33:59.277Z,61
2023-02-11T13:38:59.848Z,26.1
2023-02-11T13:44:00.313Z,43.1
2023-02-11T13:49:00.841Z,18.4
2023-02-11T13:54:01.517Z,18.1
2023-02-11T13:59:03.237Z,23.8
2023-02-11T14:04:03.592Z,20.3
2023-02-11T14:09:04.284Z,20.6
2023-02-11T14:14:04.764Z,21.8
2023-02-11T14:19:05.297Z,21.1
2023-02-11T14:24:05.991Z,20.2
2023-02-11T14:29:06.512Z,19.9
2023-02-11T14:34:07.295Z,19.9
2023-02-11T14:39:09.749Z,18.6
2023-02-11T14:44:10.204Z,21
2023-02-11T14:49:12.103Z,19.6
2023-02-11T14:54:17.707Z,24.8
2023-02-11T14:59:18.180Z,22.5
2023-02-11T15:04:18.686Z,19.5
2023-02-11T15:09:19.394Z,19.2
2023-02-11T15:14:20.079Z,21.5
2023-02-11T15:19:21.339Z,19.4
2023-02-11T15:24:21.885Z,19.7
2023-02-11T15:29:25.928Z,19.3
2023-02-11T15:34:26.545Z,20
2023-02-11T15:39:27.005Z,20.2
2023-02-11T15:44:27.698Z,27.3
2023-02-11T15:49:28.186Z,20.1
2023-02-11T15:54:28.970Z,20.5
2023-02-11T15:59:29.637Z,21.4
2023-02-11T16:04:30.309Z,20.8
2023-02-11T16:09:33.924Z,22.6
2023-02-11T16:14:34.421Z,21.4
2023-02-11T16:19:34.926Z,21.2
2023-02-11T16:24:35.562Z,21.2
2023-02-11T16:29:36.116Z,23.2
2023-02-11T16:34:36.986Z,22.8
2023-02-11T16:39:37.526Z,23.7
2023-02-11T16:44:37.983Z,23.3
2023-02-11T16:49:38.440Z,23.6
2023-02-11T16:54:39.173Z,21.6
2023-02-11T16:59:39.917Z,21.4
2023-02-11T17:04:40.391Z,21.2
2023-02-11T17:09:40.966Z,20.5
2023-02-11T17:14:41.403Z,21.5
2023-02-11T17:19:41.922Z,21.2
2023-02-11T17:24:42.368Z,20.5
2023-02-11T17:29:42.915Z,19.4
2023-02-11T17:34:43.626Z,19.9
2023-02-11T17:39:44.307Z,19.5
2023-02-11T17:44:44.812Z,19.4
2023-02-11T17:49:45.292Z,19.5
2023-02-11T17:54:46.043Z,21.3
2023-02-11T17:59:49.287Z,20.4
2023-02-11T18:04:49.925Z,22.2
2023-02-11T18:09:50.440Z,21.9
2023-02-11T18:14:51.097Z,20.3
2023-02-11T18:19:51.806Z,20.8
2023-02-11T18:24:52.679Z,20.4
2023-02-11T18:29:53.344Z,20.3
2023-02-11T18:34:54.430Z,20.4
2023-02-11T18:39:54.972Z,22
2023-02-11T18:44:55.541Z,20.7
2023-02-11T18:49:56.029Z,20.9
2023-02-11T18:54:56.861Z,20.3
2023-02-11T18:59:57.326Z,19.6
2023-02-11T19:04:57.799Z,21.2
2023-02-11T19:09:58.426Z,19.9
2023-02-11T19:14:59.191Z,20.6
2023-02-11T19:19:59.889Z,20.2
2023-02-11T19:25:00.445Z,20
2023-02-11T19:30:00.944Z,19.8
2023-02-11T19:35:01.672Z,20.6
2023-02-11T19:40:02.184Z,21.2
2023-02-11T19:45:02.839Z,22
2023-02-11T19:50:08.826Z,22
2023-02-11T19:55:09.669Z,22.2
2023-02-11T20:00:10.184Z,22.7
2023-02-11T20:05:10.657Z,22.1
2023-02-11T20:10:11.073Z,22.4
2023-02-11T20:15:13.131Z,23.5
2023-02-11T20:20:24.251Z,24.1
2023-02-11T20:25:17.807Z,24.5
2023-02-11T20:30:18.674Z,25.1
2023-02-11T20:35:19.629Z,25.9
2023-02-11T20:40:20.140Z,25.5
2023-02-11T20:45:23.780Z,28.2
2023-02-11T20:50:33.074Z,25.5
2023-02-11T20:55:33.493Z,25.9
2023-02-11T21:00:34.060Z,25.8
2023-02-11T21:05:34.994Z,26.3
2023-02-11T21:10:35.589Z,26.9
2023-02-11T21:15:36.145Z,25.8
2023-02-11T21:20:36.621Z,26.3
2023-02-11T21:25:37.114Z,26.1
2023-02-11T21:30:57.699Z,26.1
2023-02-11T21:35:39.014Z,26.7
2023-02-11T21:40:40.337Z,26.4
2023-02-11T21:45:48.188Z,26.5
2023-02-11T21:50:48.790Z,26.4
2023-02-11T21:55:49.364Z,26.6
2023-02-11T22:00:50.858Z,26
2023-02-11T22:05:52.312Z,25.9
2023-02-11T22:10:52.866Z,28.6
2023-02-11T22:15:54.189Z,26.3
2023-02-11T22:20:55.022Z,25.9
2023-02-11T22:25:56.331Z,25.6
2023-02-11T22:30:57.025Z,23.7
2023-02-11T22:35:58.030Z,23.2
2023-02-11T22:40:59.145Z,23.4
2023-02-11T22:46:00.090Z,22.9
2023-02-11T22:51:00.602Z,23.2
2023-02-11T22:56:01.211Z,23.1
2023-02-11T23:01:01.649Z,22.5
2023-02-11T23:06:02.194Z,22.4
2023-02-11T23:11:02.701Z,22.4
2023-02-11T23:16:25.954Z,22.5
2023-02-11T23:21:26.485Z,21.4
2023-02-11T23:26:27.028Z,22.3
2023-02-11T23:31:27.936Z,22
2023-02-11T23:36:28.730Z,19.6
2023-02-11T23:41:29.693Z,20.8
2023-02-11T23:46:30.381Z,20.9
2023-02-11T23:51:30.911Z,19.2
2023-02-11T23:56:31.489Z,19.2
